Time;durP1;ratioP1;P1;durP2;ratioP2;P2;SDS_P1;SDS_P2;PMS_P1;PMS_P2;Temp;Humidity;BMP_temperature;BMP_pressure;BME280_temperature;BME280_humidity;BME280_pressure;Samples;Min_cycle;Max_cycle;Signal;HPM_P1;HPM_P2
2023/09/22 00:00:43;;;;;;;42.72;21.23;;;;;;;;;;5071966;28;25101;-70
2023/09/22 00:03:10;;;;;;;39.83;20.98;;;;;;;;;;5051239;28;25165;-70
2023/09/22 00:05:36;;;;;;;41.40;20.60;;;;;;;;;;5061626;28;25058;-71
2023/09/22 00:08:04;;;;;;;38.00;20.33;;;;;;;;;;5072297;28;25073;-73
2023/09/22 00:10:30;;;;;;;37.92;20.13;;;;;;;;;;5073402;28;25111;-73
2023/09/22 00:12:56;;;;;;;40.47;19.13;;;;;;;;;;5048613;28;25089;-72
2023/09/22 00:15:22;;;;;;;43.10;21.92;;;;;;;;;;5071283;28;25078;-73
2023/09/22 00:17:48;;;;;;;43.28;20.83;;;;;;;;;;5065333;28;25077;-70
2023/09/22 00:20:15;;;;;;;41.30;19.55;;;;;;;;;;5061944;28;25054;-72
2023/09/22 00:22:44;;;;;;;43.78;21.15;;;;;;;;;;5060365;28;25088;-70
2023/09/22 00:25:12;;;;;;;45.90;21.88;;;;;;;;;;5065416;28;25072;-71
2023/09/22 00:27:38;;;;;;;45.22;21.33;;;;;;;;;;5067312;28;25060;-72
2023/09/22 00:30:05;;;;;;;46.53;22.23;;;;;;;;;;5049932;28;25056;-70
2023/09/22 00:32:31;;;;;;;45.38;21.90;;;;;;;;;;5071859;28;25065;-72
2023/09/22 00:34:57;;;;;;;48.05;21.45;;;;;;;;;;5062581;28;25062;-70
2023/09/22 00:37:23;;;;;;;45.28;23.05;;;;;;;;;;5063438;28;25124;-70
2023/09/22 00:39:49;;;;;;;55.70;25.73;;;;;;;;;;5047145;28;25138;-71
2023/09/22 00:42:15;;;;;;;46.92;24.13;;;;;;;;;;5042458;28;25067;-72
2023/09/22 00:44:41;;;;;;;49.78;25.15;;;;;;;;;;5067519;28;25087;-69
2023/09/22 00:47:08;;;;;;;56.83;27.10;;;;;;;;;;5065142;28;25071;-70
2023/09/22 00:49:35;;;;;;;53.92;25.65;;;;;;;;;;5071765;28;25059;-71
2023/09/22 00:52:01;;;;;;;49.67;23.42;;;;;;;;;;5064451;28;25073;-71
2023/09/22 00:54:27;;;;;;;51.00;25.45;;;;;;;;;;5048870;28;25062;-70
2023/09/22 00:56:54;;;;;;;51.53;24.85;;;;;;;;;;5066504;28;25083;-70
2023/09/22 00:59:21;;;;;;;48.97;24.88;;;;;;;;;;5068031;28;25147;-72
2023/09/22 01:01:47;;;;;;;46.70;23.10;;;;;;;;;;5067104;28;25089;-69
2023/09/22 01:04:13;;;;;;;48.92;23.42;;;;;;;;;;5063655;28;25116;-70
2023/09/22 01:06:39;;;;;;;46.67;22.10;;;;;;;;;;5065836;28;25142;-71
2023/09/22 01:09:11;;;;;;;46.55;21.55;;;;;;;;;;5063446;28;25059;-70
2023/09/22 01:11:39;;;;;;;41.55;19.50;;;;;;;;;;5063658;28;25045;-75
2023/09/22 01:14:06;;;;;;;43.95;19.98;;;;;;;;;;5074674;28;25062;-74
2023/09/22 01:16:32;;;;;;;47.20;22.08;;;;;;;;;;5069327;28;25056;-73
2023/09/22 01:18:58;;;;;;;52.78;21.90;;;;;;;;;;5069888;28;25522;-72
2023/09/22 01:21:27;;;;;;;45.40;22.17;;;;;;;;;;5066196;28;25058;-72
2023/09/22 01:23:53;;;;;;;53.88;21.13;;;;;;;;;;5056042;28;25089;-72
2023/09/22 01:26:21;;;;;;;45.75;21.00;;;;;;;;;;5065609;28;25070;-74
2023/09/22 01:28:47;;;;;;;47.42;20.63;;;;;;;;;;5068049;28;25095;-73
2023/09/22 01:31:13;;;;;;;43.53;20.17;;;;;;;;;;5062016;28;25052;-72
2023/09/22 01:33:40;;;;;;;50.53;21.27;;;;;;;;;;5082800;28;25062;-73
2023/09/22 01:36:06;;;;;;;43.67;20.67;;;;;;;;;;5070427;28;25128;-71
2023/09/22 01:38:32;;;;;;;41.22;20.42;;;;;;;;;;5068844;28;25061;-72
2023/09/22 01:40:58;;;;;;;42.50;19.42;;;;;;;;;;5076930;28;25051;-73
2023/09/22 01:43:25;;;;;;;40.03;18.85;;;;;;;;;;5069355;28;25076;-71
2023/09/22 01:45:51;;;;;;;39.78;18.63;;;;;;;;;;5071840;28;25089;-76
2023/09/22 01:48:17;;;;;;;39.50;18.23;;;;;;;;;;5050448;28;25056;-71
2023/09/22 01:50:43;;;;;;;42.33;17.77;;;;;;;;;;5072619;28;25110;-73
2023/09/22 01:53:10;;;;;;;36.08;16.08;;;;;;;;;;5054691;28;25071;-71
2023/09/22 01:55:37;;;;;;;44.10;19.08;;;;;;;;;;5067270;28;25060;-73
2023/09/22 01:58:04;;;;;;;35.00;17.75;;;;;;;;;;5064024;28;25133;-71
2023/09/22 02:00:31;;;;;;;38.30;17.65;;;;;;;;;;5068108;28;25093;-71
2023/09/22 02:02:57;;;;;;;37.78;19.05;;;;;;;;;;5062141;28;25084;-72
2023/09/22 02:05:23;;;;;;;42.78;17.10;;;;;;;;;;5063397;28;25070;-71
2023/09/22 02:07:49;;;;;;;40.97;18.35;;;;;;;;;;5066765;28;25070;-74
2023/09/22 02:10:15;;;;;;;39.92;18.38;;;;;;;;;;5063606;28;25088;-74
2023/09/22 02:12:43;;;;;;;43.03;16.75;;;;;;;;;;5073993;28;25054;-75
2023/09/22 02:15:10;;;;;;;33.28;15.65;;;;;;;;;;5054394;28;25096;-73
2023/09/22 02:17:41;;;;;;;38.45;17.90;;;;;;;;;;5051358;28;25065;-73
2023/09/22 02:20:17;;;;;;;42.67;16.30;;;;;;;;;;5077254;28;25049;-73
2023/09/22 02:22:47;;;;;;;37.92;16.00;;;;;;;;;;5068564;28;25057;-75
2023/09/22 02:25:19;;;;;;;29.10;14.10;;;;;;;;;;5061531;28;25057;-73
2023/09/22 02:27:45;;;;;;;;;;;;;;;;;;5057259;28;25153;-73
2023/09/22 02:30:11;;;;;;;33.80;14.07;;;;;;;;;;5062563;28;25082;-71
2023/09/22 02:32:39;;;;;;;37.33;15.25;;;;;;;;;;5064646;28;25181;-72
2023/09/22 02:35:05;;;;;;;29.33;14.18;;;;;;;;;;5074465;28;25167;-71
2023/09/22 02:37:31;;;;;;;38.38;14.63;;;;;;;;;;5068449;28;25068;-76
2023/09/22 02:39:57;;;;;;;32.67;14.10;;;;;;;;;;5070220;28;25056;-72
2023/09/22 02:42:23;;;;;;;30.52;13.63;;;;;;;;;;5079632;28;25067;-73
2023/09/22 02:44:50;;;;;;;26.15;13.27;;;;;;;;;;5064717;28;25136;-74
2023/09/22 02:47:16;;;;;;;34.40;13.30;;;;;;;;;;5075912;28;25138;-74
2023/09/22 02:49:43;;;;;;;33.63;14.23;;;;;;;;;;5078548;28;25064;-73
2023/09/22 02:52:09;;;;;;;29.58;13.57;;;;;;;;;;5065709;28;25087;-71
2023/09/22 02:54:35;;;;;;;30.27;12.57;;;;;;;;;;5073068;28;25062;-72
2023/09/22 02:57:03;;;;;;;25.67;13.23;;;;;;;;;;5070357;28;25062;-73
2023/09/22 02:59:29;;;;;;;29.23;11.90;;;;;;;;;;5071078;28;25080;-76
2023/09/22 03:01:55;;;;;;;30.73;11.52;;;;;;;;;;5075671;28;25077;-74
2023/09/22 03:04:21;;;;;;;24.55;10.90;;;;;;;;;;5076871;28;25070;-73
2023/09/22 03:06:48;;;;;;;36.72;12.20;;;;;;;;;;5078520;28;25068;-72
2023/09/22 03:09:14;;;;;;;28.63;11.63;;;;;;;;;;5057057;28;25057;-74
2023/09/22 03:11:41;;;;;;;31.10;11.80;;;;;;;;;;5071857;28;25077;-73
2023/09/22 03:14:07;;;;;;;25.05;10.55;;;;;;;;;;5076467;28;25082;-76
2023/09/22 03:16:33;;;;;;;32.80;12.05;;;;;;;;;;5082175;28;25076;-74
2023/09/22 03:18:59;;;;;;;20.33;10.20;;;;;;;;;;5071060;28;25048;-71
2023/09/22 03:21:26;;;;;;;24.60;10.63;;;;;;;;;;5073680;28;25066;-72
2023/09/22 03:23:53;;;;;;;27.45;11.05;;;;;;;;;;5074223;28;25067;-73
2023/09/22 03:26:19;;;;;;;23.75;10.40;;;;;;;;;;5075774;28;25068;-72
2023/09/22 03:28:45;;;;;;;21.58;11.18;;;;;;;;;;5070084;28;25062;-73
2023/09/22 03:31:11;;;;;;;21.60;10.68;;;;;;;;;;5078180;28;25088;-72
2023/09/22 03:33:41;;;;;;;26.55;11.98;;;;;;;;;;5069746;28;25130;-72
2023/09/22 03:36:10;;;;;;;24.83;12.13;;;;;;;;;;5077405;28;25057;-71
2023/09/22 03:38:42;;;;;;;24.90;10.60;;;;;;;;;;5079340;28;25129;-72
2023/09/22 03:41:08;;;;;;;25.92;11.25;;;;;;;;;;5067226;28;25072;-71
2023/09/22 03:43:34;;;;;;;20.38;10.93;;;;;;;;;;5076191;28;25063;-71
2023/09/22 03:46:00;;;;;;;28.40;11.88;;;;;;;;;;5066958;28;25071;-71
2023/09/22 03:48:26;;;;;;;23.38;11.07;;;;;;;;;;5068272;28;25058;-72
2023/09/22 03:50:53;;;;;;;25.85;10.75;;;;;;;;;;5052632;28;25076;-73
2023/09/22 03:53:20;;;;;;;25.13;10.93;;;;;;;;;;5073130;28;25115;-73
2023/09/22 03:55:47;;;;;;;25.73;11.85;;;;;;;;;;5071185;28;25063;-74
2023/09/22 03:58:14;;;;;;;20.10;11.27;;;;;;;;;;5071105;28;25082;-73
2023/09/22 04:00:40;;;;;;;29.15;12.38;;;;;;;;;;5053437;28;25066;-74
2023/09/22 04:03:09;;;;;;;22.05;11.55;;;;;;;;;;5077850;28;25069;-74
2023/09/22 04:05:35;;;;;;;22.08;10.43;;;;;;;;;;5072566;28;25144;-74
2023/09/22 04:08:01;;;;;;;22.25;12.02;;;;;;;;;;5069672;28;25078;-71
2023/09/22 04:10:27;;;;;;;22.38;12.13;;;;;;;;;;5070531;28;25056;-70
2023/09/22 04:12:53;;;;;;;16.98;10.73;;;;;;;;;;5072139;28;25070;-75
2023/09/22 04:15:19;;;;;;;24.17;12.50;;;;;;;;;;5076729;28;25150;-72
2023/09/22 04:17:46;;;;;;;22.25;12.02;;;;;;;;;;5067680;28;25070;-73
2023/09/22 04:20:16;;;;;;;22.00;11.50;;;;;;;;;;5068729;28;25136;-72
2023/09/22 04:22:43;;;;;;;22.90;12.60;;;;;;;;;;5071369;28;25145;-72
2023/09/22 04:25:18;;;;;;;23.23;12.00;;;;;;;;;;5068718;28;25091;-73
2023/09/22 04:27:47;;;;;;;19.05;10.73;;;;;;;;;;5070308;28;25062;-73
2023/09/22 04:30:16;;;;;;;14.70;10.13;;;;;;;;;;5071616;28;25064;-75
2023/09/22 04:32:45;;;;;;;20.83;11.95;;;;;;;;;;5069907;28;25073;-73
2023/09/22 04:35:12;;;;;;;22.73;11.77;;;;;;;;;;5045838;28;25088;-72
2023/09/22 04:37:40;;;;;;;22.45;12.20;;;;;;;;;;5056299;28;25086;-75
2023/09/22 04:40:11;;;;;;;19.33;12.23;;;;;;;;;;5068874;28;25082;-73
2023/09/22 04:42:37;;;;;;;16.13;10.57;;;;;;;;;;5075474;28;25082;-72
2023/09/22 04:45:04;;;;;;;19.05;11.38;;;;;;;;;;5067238;28;25058;-73
2023/09/22 04:47:30;;;;;;;20.73;11.95;;;;;;;;;;5060923;28;25100;-73
2023/09/22 04:49:57;;;;;;;19.02;11.02;;;;;;;;;;5057243;28;25054;-72
2023/09/22 04:52:23;;;;;;;17.17;9.50;;;;;;;;;;5024631;28;25097;-73
2023/09/22 04:54:49;;;;;;;16.77;9.18;;;;;;;;;;5064374;28;25054;-73
2023/09/22 04:57:15;;;;;;;15.85;9.18;;;;;;;;;;5050981;28;25103;-76
2023/09/22 04:59:43;;;;;;;12.90;9.00;;;;;;;;;;5060794;28;25093;-71
2023/09/22 05:02:11;;;;;;;13.30;8.23;;;;;;;;;;5066219;28;25052;-73
2023/09/22 05:04:37;;;;;;;10.77;7.15;;;;;;;;;;5068175;28;25059;-73
2023/09/22 05:07:04;;;;;;;16.08;7.25;;;;;;;;;;5046552;28;25065;-71
2023/09/22 05:09:30;;;;;;;18.60;8.13;;;;;;;;;;5065652;28;25156;-71
2023/09/22 05:11:56;;;;;;;11.23;7.45;;;;;;;;;;5047001;28;25059;-74
2023/09/22 05:14:22;;;;;;;13.40;6.72;;;;;;;;;;5065757;28;25058;-71
2023/09/22 05:16:48;;;;;;;9.68;6.68;;;;;;;;;;5062700;28;25046;-73
2023/09/22 05:19:14;;;;;;;12.70;6.30;;;;;;;;;;5059897;28;25064;-76
2023/09/22 05:21:40;;;;;;;10.13;6.05;;;;;;;;;;5067867;28;25070;-71
2023/09/22 05:24:06;;;;;;;12.65;7.45;;;;;;;;;;5070376;28;25142;-74
2023/09/22 05:26:32;;;;;;;10.40;6.35;;;;;;;;;;5066174;28;25091;-73
2023/09/22 05:28:58;;;;;;;11.93;6.35;;;;;;;;;;5066495;28;25077;-74
2023/09/22 05:31:24;;;;;;;10.13;5.90;;;;;;;;;;5065259;28;25094;-71
2023/09/22 05:33:50;;;;;;;12.30;6.30;;;;;;;;;;5075716;28;25073;-73
2023/09/22 05:36:16;;;;;;;9.35;5.85;;;;;;;;;;5063664;28;25068;-74
2023/09/22 05:38:42;;;;;;;13.85;6.20;;;;;;;;;;5050279;28;25081;-72
2023/09/22 05:41:11;;;;;;;12.63;6.28;;;;;;;;;;5067952;28;25159;-73
2023/09/22 05:43:38;;;;;;;11.38;6.68;;;;;;;;;;5070701;28;25071;-72
2023/09/22 05:46:18;;;;;;;11.10;6.30;;;;;;;;;;5011079;28;25086;-63
2023/09/22 05:48:44;;;;;;;11.88;6.65;;;;;;;;;;4988510;28;25075;-64
2023/09/22 05:51:11;;;;;;;13.27;5.63;;;;;;;;;;4997632;28;25096;-64
2023/09/22 05:53:38;;;;;;;10.77;5.10;;;;;;;;;;5011128;28;25134;-63
2023/09/22 05:56:06;;;;;;;14.48;5.38;;;;;;;;;;5003968;28;25072;-64
2023/09/22 05:58:32;;;;;;;7.15;5.25;;;;;;;;;;5010379;28;25080;-64
2023/09/22 06:00:58;;;;;;;7.93;4.97;;;;;;;;;;5006398;28;25137;-64
2023/09/22 06:03:24;;;;;;;7.38;4.80;;;;;;;;;;5014185;28;25075;-63
2023/09/22 06:05:50;;;;;;;8.85;4.90;;;;;;;;;;5008871;28;25135;-63
2023/09/22 06:08:16;;;;;;;7.35;4.78;;;;;;;;;;5010305;28;25068;-62
2023/09/22 06:10:43;;;;;;;8.25;4.82;;;;;;;;;;5009636;28;25060;-64
2023/09/22 06:13:09;;;;;;;5.30;4.25;;;;;;;;;;5007451;28;25070;-63
2023/09/22 06:15:35;;;;;;;4.55;3.88;;;;;;;;;;5009939;28;25085;-63
2023/09/22 06:18:04;;;;;;;3.95;3.55;;;;;;;;;;5010385;28;25076;-63
2023/09/22 06:20:30;;;;;;;4.00;3.58;;;;;;;;;;5011672;28;25071;-64
2023/09/22 06:22:57;;;;;;;5.93;3.30;;;;;;;;;;5003846;28;25073;-62
2023/09/22 06:25:26;;;;;;;3.65;3.00;;;;;;;;;;5006968;28;25087;-64
2023/09/22 06:27:54;;;;;;;6.05;3.78;;;;;;;;;;5016152;28;25077;-62
2023/09/22 06:30:20;;;;;;;7.85;2.95;;;;;;;;;;5007507;28;25056;-62
2023/09/22 06:32:46;;;;;;;4.50;2.72;;;;;;;;;;5010726;28;25073;-62
2023/09/22 06:35:12;;;;;;;5.80;3.05;;;;;;;;;;5006953;28;25053;-62
2023/09/22 06:37:39;;;;;;;4.00;2.42;;;;;;;;;;4997270;28;25069;-62
2023/09/22 06:40:11;;;;;;;5.22;2.35;;;;;;;;;;5008659;28;25085;-62
2023/09/22 06:42:39;;;;;;;2.72;2.00;;;;;;;;;;5010690;28;25071;-63
2023/09/22 06:45:05;;;;;;;5.40;2.15;;;;;;;;;;5007908;28;25097;-63
2023/09/22 06:47:33;;;;;;;4.38;2.55;;;;;;;;;;5025142;23;25049;-61
2023/09/22 06:50:02;;;;;;;3.25;2.95;;;;;;;;;;5042569;28;25111;-61
2023/09/22 06:52:28;;;;;;;5.00;2.28;;;;;;;;;;5040282;28;25099;-61
2023/09/22 06:54:54;;;;;;;3.75;2.22;;;;;;;;;;5044706;28;25098;-61
2023/09/22 06:57:20;;;;;;;5.03;2.30;;;;;;;;;;5033136;28;25104;-62
2023/09/22 06:59:45;;;;;;;3.78;2.60;;;;;;;;;;5028120;28;25047;-62
2023/09/22 07:02:11;;;;;;;5.63;2.05;;;;;;;;;;5034996;28;25084;-63
2023/09/22 07:04:37;;;;;;;1.90;1.73;;;;;;;;;;5012272;28;25065;-60
2023/09/22 07:07:04;;;;;;;8.82;2.50;;;;;;;;;;5036645;28;25091;-61
2023/09/22 07:09:30;;;;;;;1.77;1.63;;;;;;;;;;5015136;28;25102;-60
2023/09/22 07:11:57;;;;;;;4.93;2.55;;;;;;;;;;5037088;28;25171;-61
2023/09/22 07:14:23;;;;;;;6.25;2.65;;;;;;;;;;5027179;28;25097;-61
2023/09/22 07:16:49;;;;;;;5.05;3.03;;;;;;;;;;5032228;28;25102;-62
2023/09/22 07:19:15;;;;;;;5.05;2.88;;;;;;;;;;5031475;28;25095;-61
2023/09/22 07:21:42;;;;;;;4.07;3.05;;;;;;;;;;5028076;28;25173;-61
2023/09/22 07:24:08;;;;;;;3.70;2.95;;;;;;;;;;5012744;28;25123;-61
2023/09/22 07:26:34;;;;;;;5.38;3.70;;;;;;;;;;5027668;28;25067;-62
2023/09/22 07:29:00;;;;;;;7.60;3.90;;;;;;;;;;5033979;28;25043;-61
2023/09/22 07:31:30;;;;;;;4.63;2.75;;;;;;;;;;5034947;28;25059;-61
2023/09/22 07:33:57;;;;;;;4.15;2.88;;;;;;;;;;5032435;28;25054;-61
2023/09/22 07:36:23;;;;;;;4.68;2.88;;;;;;;;;;5033281;28;25065;-61
2023/09/22 07:38:49;;;;;;;4.25;2.83;;;;;;;;;;5029550;28;25067;-62
2023/09/22 07:41:15;;;;;;;3.92;3.15;;;;;;;;;;5028678;28;25078;-61
2023/09/22 07:43:41;;;;;;;4.18;2.90;;;;;;;;;;5032766;28;25078;-61
2023/09/22 07:46:07;;;;;;;4.75;3.25;;;;;;;;;;5032374;28;25059;-61
2023/09/22 07:48:34;;;;;;;3.67;3.17;;;;;;;;;;5013606;28;25052;-63
2023/09/22 07:51:00;;;;;;;5.75;3.35;;;;;;;;;;5036571;28;25066;-62
2023/09/22 07:53:26;;;;;;;3.83;3.00;;;;;;;;;;5024634;28;25067;-61
2023/09/22 07:55:56;;;;;;;6.28;2.97;;;;;;;;;;5030153;28;25137;-62
2023/09/22 07:58:25;;;;;;;4.90;2.70;;;;;;;;;;5032721;28;25101;-61
2023/09/22 08:00:52;;;;;;;3.75;3.08;;;;;;;;;;5029015;28;25074;-61
2023/09/22 08:03:21;;;;;;;4.13;2.83;;;;;;;;;;5026757;28;25051;-62
2023/09/22 08:05:51;;;;;;;4.40;2.78;;;;;;;;;;5030300;28;25091;-61
2023/09/22 08:08:17;;;;;;;4.65;2.60;;;;;;;;;;5028705;28;25103;-61
2023/09/22 08:10:43;;;;;;;4.22;2.97;;;;;;;;;;5025949;28;25136;-62
2023/09/22 08:13:09;;;;;;;3.88;3.22;;;;;;;;;;5031367;28;25059;-62
2023/09/22 08:15:37;;;;;;;4.47;2.90;;;;;;;;;;5025843;28;25067;-62
2023/09/22 08:18:05;;;;;;;5.43;3.15;;;;;;;;;;5030577;28;25084;-61
2023/09/22 08:20:31;;;;;;;7.68;2.92;;;;;;;;;;5030774;28;25017;-62
2023/09/22 08:22:57;;;;;;;10.10;3.10;;;;;;;;;;5030595;28;25151;-61
2023/09/22 08:25:23;;;;;;;3.42;2.72;;;;;;;;;;5009265;28;25189;-62
2023/09/22 08:27:52;;;;;;;4.70;2.92;;;;;;;;;;5030402;28;25146;-61
2023/09/22 08:30:19;;;;;;;2.75;2.42;;;;;;;;;;5013918;28;25088;-62
2023/09/22 08:32:45;;;;;;;4.88;2.53;;;;;;;;;;5028619;28;25131;-61
2023/09/22 08:35:17;;;;;;;3.22;2.42;;;;;;;;;;5029471;28;25148;-61
2023/09/22 08:37:43;;;;;;;5.18;2.65;;;;;;;;;;5028914;28;25103;-62
2023/09/22 08:40:17;;;;;;;3.42;2.50;;;;;;;;;;5013088;28;25079;-62
2023/09/22 08:42:44;;;;;;;2.92;2.42;;;;;;;;;;5030662;28;25057;-62
2023/09/22 08:45:10;;;;;;;6.82;1.83;;;;;;;;;;5027127;28;25157;-61
2023/09/22 08:47:40;;;;;;;3.60;2.35;;;;;;;;;;5026866;28;25078;-61
2023/09/22 08:50:07;;;;;;;3.95;2.75;;;;;;;;;;5030128;28;25064;-61
2023/09/22 08:52:33;;;;;;;7.00;2.97;;;;;;;;;;5013185;28;25071;-63
2023/09/22 08:55:03;;;;;;;2.65;2.03;;;;;;;;;;5027490;28;25083;-61
2023/09/22 08:57:30;;;;;;;2.90;2.10;;;;;;;;;;5025515;28;25112;-61
2023/09/22 08:59:57;;;;;;;4.07;2.00;;;;;;;;;;5025648;28;25075;-61
2023/09/22 09:02:23;;;;;;;3.22;2.20;;;;;;;;;;5028933;28;25147;-60
2023/09/22 09:04:49;;;;;;;4.72;1.75;;;;;;;;;;5030338;28;25068;-61
2023/09/22 09:07:19;;;;;;;15.35;2.75;;;;;;;;;;5031663;28;25076;-61
2023/09/22 09:09:45;;;;;;;4.70;2.20;;;;;;;;;;5028872;28;25065;-60
2023/09/22 09:12:15;;;;;;;6.70;2.15;;;;;;;;;;5010345;28;25062;-63
2023/09/22 09:14:42;;;;;;;3.78;1.67;;;;;;;;;;5026558;28;25054;-61
2023/09/22 09:17:22;;;;;;;2.90;2.00;;;;;;;;;;5028760;28;25049;-62
2023/09/22 09:19:55;;;;;;;4.90;1.95;;;;;;;;;;5022423;28;25112;-61
2023/09/22 09:22:21;;;;;;;2.70;1.80;;;;;;;;;;5025214;28;25048;-62
2023/09/22 09:24:47;;;;;;;2.63;1.70;;;;;;;;;;5028165;28;25070;-61
2023/09/22 09:27:20;;;;;;;2.63;1.40;;;;;;;;;;5005426;28;25104;-61
2023/09/22 09:29:46;;;;;;;5.05;2.17;;;;;;;;;;5023500;28;25056;-61
2023/09/22 09:32:42;;;;;;;2.33;1.55;;;;;;;;;;5022479;28;25165;-60
2023/09/22 09:35:09;;;;;;;3.03;1.65;;;;;;;;;;4991059;28;25045;-62
2023/09/22 09:37:35;;;;;;;1.58;1.40;;;;;;;;;;5026638;28;25057;-62
2023/09/22 09:40:03;;;;;;;3.90;1.45;;;;;;;;;;5028432;28;25052;-62
2023/09/22 09:42:31;;;;;;;3.08;1.60;;;;;;;;;;5034416;28;25132;-62
2023/09/22 09:44:57;;;;;;;4.80;1.30;;;;;;;;;;5030735;28;25064;-61
2023/09/22 09:47:24;;;;;;;3.05;1.27;;;;;;;;;;5028820;28;25044;-63
2023/09/22 09:49:57;;;;;;;3.17;1.25;;;;;;;;;;5029157;28;25064;-62
2023/09/22 09:52:59;;;;;;;2.50;1.30;;;;;;;;;;5029412;28;25136;-62
2023/09/22 09:55:26;;;;;;;6.35;1.40;;;;;;;;;;4947380;28;25057;-62
2023/09/22 09:57:53;;;;;;;3.83;1.42;;;;;;;;;;5009640;28;25048;-63
2023/09/22 10:00:20;;;;;;;2.55;1.20;;;;;;;;;;5026442;28;25058;-62
2023/09/22 10:02:49;;;;;;;4.22;1.38;;;;;;;;;;5024032;28;25079;-63
2023/09/22 10:05:16;;;;;;;3.33;1.30;;;;;;;;;;5019108;28;25103;-62
2023/09/22 10:07:43;;;;;;;7.05;1.25;;;;;;;;;;5026842;28;25083;-62
2023/09/22 10:10:10;;;;;;;1.38;1.23;;;;;;;;;;5028241;28;25073;-63
2023/09/22 10:12:36;;;;;;;3.10;2.00;;;;;;;;;;5025399;28;25050;-62
2023/09/22 10:15:04;;;;;;;3.30;1.40;;;;;;;;;;5026941;28;25167;-68
2023/09/22 10:17:30;;;;;;;5.57;1.30;;;;;;;;;;5023698;28;25050;-63
2023/09/22 10:19:57;;;;;;;2.15;1.38;;;;;;;;;;5025495;28;25087;-63
2023/09/22 10:22:23;;;;;;;1.48;0.90;;;;;;;;;;5025946;28;25077;-63
2023/09/22 10:25:15;;;;;;;3.08;1.08;;;;;;;;;;5023048;28;25152;-62
2023/09/22 10:27:57;;;;;;;1.75;1.30;;;;;;;;;;5024026;28;25064;-64
2023/09/22 10:30:30;;;;;;;2.15;1.10;;;;;;;;;;5006902;28;25054;-63
2023/09/22 10:33:16;;;;;;;1.02;0.95;;;;;;;;;;5027088;28;25057;-63
2023/09/22 10:35:42;;;;;;;1.10;0.85;;;;;;;;;;5026788;28;25057;-62
2023/09/22 10:38:10;;;;;;;6.18;1.13;;;;;;;;;;5029682;28;25053;-62
2023/09/22 10:40:39;;;;;;;1.77;1.23;;;;;;;;;;5029332;28;25056;-63
2023/09/22 10:43:05;;;;;;;2.22;1.27;;;;;;;;;;5029521;28;25077;-62
2023/09/22 10:45:31;;;;;;;2.35;0.90;;;;;;;;;;5028275;28;25041;-63
2023/09/22 10:48:01;;;;;;;2.70;1.00;;;;;;;;;;5026288;28;25132;-63
2023/09/22 10:50:31;;;;;;;3.88;0.85;;;;;;;;;;5000413;28;25063;-62
2023/09/22 10:52:58;;;;;;;2.58;0.85;;;;;;;;;;5027231;28;25061;-63
2023/09/22 10:55:24;;;;;;;1.88;1.30;;;;;;;;;;5021379;28;25145;-61
2023/09/22 10:57:50;;;;;;;1.10;0.90;;;;;;;;;;5025746;28;25128;-62
2023/09/22 11:00:18;;;;;;;1.45;0.80;;;;;;;;;;5022355;28;25051;-65
2023/09/22 11:02:44;;;;;;;1.65;0.90;;;;;;;;;;5027465;28;25222;-63
2023/09/22 11:05:13;;;;;;;3.10;1.02;;;;;;;;;;5026911;28;25163;-62
2023/09/22 11:07:44;;;;;;;2.78;0.90;;;;;;;;;;5028205;28;25085;-62
2023/09/22 11:10:18;;;;;;;3.03;1.02;;;;;;;;;;5028285;28;25141;-62
2023/09/22 11:12:47;;;;;;;3.13;1.05;;;;;;;;;;5026577;28;25067;-65
2023/09/22 11:15:13;;;;;;;6.82;1.20;;;;;;;;;;5027123;28;25097;-64
2023/09/22 11:17:46;;;;;;;0.68;0.68;;;;;;;;;;5009613;28;25094;-63
2023/09/22 11:20:16;;;;;;;2.33;0.60;;;;;;;;;;5027846;28;25055;-63
2023/09/22 11:22:43;;;;;;;1.92;0.65;;;;;;;;;;5027130;28;25123;-62
2023/09/22 11:25:09;;;;;;;2.10;0.90;;;;;;;;;;5027623;28;25080;-63
2023/09/22 11:27:43;;;;;;;2.97;0.90;;;;;;;;;;5022511;28;25082;-64
2023/09/22 11:30:14;;;;;;;2.33;0.80;;;;;;;;;;5025288;28;25066;-63
2023/09/22 11:32:40;;;;;;;1.13;1.00;;;;;;;;;;5026827;28;25049;-63
2023/09/22 11:35:06;;;;;;;1.25;0.80;;;;;;;;;;5026498;28;25078;-64
2023/09/22 11:37:32;;;;;;;2.95;0.85;;;;;;;;;;5020909;28;25142;-63
2023/09/22 11:39:58;;;;;;;1.58;0.85;;;;;;;;;;5031711;28;25106;-65
2023/09/22 11:42:24;;;;;;;2.40;0.80;;;;;;;;;;5034493;28;25093;-63
2023/09/22 11:44:59;;;;;;;2.28;0.90;;;;;;;;;;5031894;28;25104;-65
2023/09/22 11:47:25;;;;;;;1.25;1.05;;;;;;;;;;5033402;28;25070;-65
2023/09/22 11:49:52;;;;;;;3.60;0.90;;;;;;;;;;5030881;28;25069;-64
2023/09/22 11:52:28;;;;;;;4.03;0.98;;;;;;;;;;5038029;28;25148;-64
2023/09/22 11:54:54;;;;;;;1.85;0.70;;;;;;;;;;5038152;28;25069;-64
2023/09/22 11:57:20;;;;;;;10.68;1.52;;;;;;;;;;5040513;28;25048;-63
2023/09/22 11:59:48;;;;;;;1.67;0.65;;;;;;;;;;5020366;28;25106;-64
2023/09/22 12:02:14;;;;;;;2.63;0.73;;;;;;;;;;5032028;28;25138;-62
2023/09/22 12:04:40;;;;;;;2.70;1.00;;;;;;;;;;5035546;28;25059;-63
2023/09/22 12:07:06;;;;;;;2.05;0.65;;;;;;;;;;5028650;28;25084;-64
2023/09/22 12:09:32;;;;;;;0.85;0.80;;;;;;;;;;5035461;28;25065;-63
2023/09/22 12:11:58;;;;;;;3.65;0.85;;;;;;;;;;5027819;28;25086;-63
2023/09/22 12:14:24;;;;;;;0.88;0.68;;;;;;;;;;5016170;28;25073;-63
2023/09/22 12:16:51;;;;;;;3.60;0.73;;;;;;;;;;5042665;28;25151;-64
2023/09/22 12:19:19;;;;;;;1.75;0.77;;;;;;;;;;5038137;28;25064;-64
2023/09/22 12:21:45;;;;;;;0.82;0.75;;;;;;;;;;5016206;28;25059;-63
2023/09/22 12:24:11;;;;;;;3.20;1.30;;;;;;;;;;5030112;28;25073;-64
2023/09/22 12:26:37;;;;;;;4.15;1.08;;;;;;;;;;5032075;28;25071;-64
2023/09/22 12:29:05;;;;;;;0.82;0.80;;;;;;;;;;5044025;28;25073;-64
2023/09/22 12:31:31;;;;;;;3.28;0.90;;;;;;;;;;5042192;28;25077;-64
2023/09/22 12:33:57;;;;;;;3.28;1.02;;;;;;;;;;5040719;28;25053;-66
2023/09/22 12:36:24;;;;;;;2.42;0.88;;;;;;;;;;5035841;28;25161;-63
2023/09/22 12:38:49;;;;;;;3.00;1.20;;;;;;;;;;5036464;28;25060;-64
2023/09/22 12:41:15;;;;;;;2.40;1.13;;;;;;;;;;5025217;28;25096;-63
2023/09/22 12:43:41;;;;;;;3.40;1.20;;;;;;;;;;5022833;28;25077;-64
2023/09/22 12:46:08;;;;;;;0.98;0.98;;;;;;;;;;5030515;28;25078;-64
2023/09/22 12:48:37;;;;;;;2.33;1.30;;;;;;;;;;5029278;28;25107;-62
2023/09/22 12:51:03;;;;;;;4.43;1.52;;;;;;;;;;5020540;28;25060;-63
2023/09/22 12:53:29;;;;;;;4.72;1.23;;;;;;;;;;5033166;28;25106;-63
2023/09/22 12:55:57;;;;;;;3.95;1.20;;;;;;;;;;5033749;28;25085;-63
2023/09/22 12:58:26;;;;;;;2.80;1.30;;;;;;;;;;5026657;28;25054;-63
2023/09/22 13:00:52;;;;;;;6.25;1.80;;;;;;;;;;5035000;28;25062;-63
2023/09/22 13:03:18;;;;;;;2.92;0.90;;;;;;;;;;5037157;28;25068;-62
2023/09/22 13:05:44;;;;;;;3.33;1.00;;;;;;;;;;5035016;28;25075;-62
2023/09/22 13:08:10;;;;;;;2.22;1.20;;;;;;;;;;5035972;28;25174;-63
2023/09/22 13:10:40;;;;;;;1.90;0.80;;;;;;;;;;5030558;28;25084;-63
2023/09/22 13:13:06;;;;;;;1.52;1.10;;;;;;;;;;5033345;28;25048;-64
2023/09/22 13:15:33;;;;;;;3.78;1.38;;;;;;;;;;5028343;28;25079;-62
2023/09/22 13:17:59;;;;;;;3.53;1.13;;;;;;;;;;5032924;28;25050;-64
2023/09/22 13:20:25;;;;;;;2.78;1.42;;;;;;;;;;5041267;28;25093;-64
2023/09/22 13:22:51;;;;;;;1.52;1.10;;;;;;;;;;5032554;28;25126;-64
2023/09/22 13:25:18;;;;;;;4.22;1.15;;;;;;;;;;5035286;28;25053;-63
2023/09/22 13:27:44;;;;;;;1.95;1.20;;;;;;;;;;5037277;28;25077;-63
2023/09/22 13:30:10;;;;;;;3.88;1.50;;;;;;;;;;5038301;28;25062;-66
2023/09/22 13:32:36;;;;;;;3.65;1.30;;;;;;;;;;5031465;28;25062;-62
2023/09/22 13:35:02;;;;;;;6.88;2.10;;;;;;;;;;5034870;28;25135;-64
2023/09/22 13:37:28;;;;;;;5.63;1.83;;;;;;;;;;5037812;28;25054;-63
2023/09/22 13:39:54;;;;;;;2.30;1.55;;;;;;;;;;5022701;28;25055;-64
2023/09/22 13:42:20;;;;;;;3.45;1.83;;;;;;;;;;5026656;28;25063;-62
2023/09/22 13:44:46;;;;;;;1.63;1.50;;;;;;;;;;5035678;28;25080;-62
2023/09/22 13:47:12;;;;;;;2.40;1.60;;;;;;;;;;5032043;28;25075;-63
2023/09/22 13:49:38;;;;;;;1.60;1.50;;;;;;;;;;5031169;28;25075;-63
2023/09/22 13:52:04;;;;;;;4.43;2.30;;;;;;;;;;5032174;28;25065;-64
2023/09/22 13:54:30;;;;;;;2.83;1.75;;;;;;;;;;5031002;28;25160;-63
2023/09/22 13:56:56;;;;;;;6.43;2.15;;;;;;;;;;5035590;28;25090;-63
2023/09/22 13:59:22;;;;;;;2.53;2.10;;;;;;;;;;5034191;28;25072;-61
2023/09/22 14:01:48;;;;;;;5.93;2.20;;;;;;;;;;5038088;28;25137;-62
2023/09/22 14:04:15;;;;;;;4.28;2.20;;;;;;;;;;5016363;28;25158;-63
2023/09/22 14:06:41;;;;;;;3.28;2.30;;;;;;;;;;5037366;28;25065;-63
2023/09/22 14:09:08;;;;;;;5.82;2.40;;;;;;;;;;5041176;28;25104;-62
2023/09/22 14:11:34;;;;;;;3.22;2.50;;;;;;;;;;5036924;28;25076;-61
2023/09/22 14:14:00;;;;;;;4.85;2.03;;;;;;;;;;5032057;28;25136;-62
2023/09/22 14:16:26;;;;;;;2.70;2.30;;;;;;;;;;5034783;28;25098;-62
2023/09/22 14:18:53;;;;;;;4.00;2.08;;;;;;;;;;5038481;28;25057;-62
2023/09/22 14:21:19;;;;;;;3.53;2.47;;;;;;;;;;5031975;28;25053;-63
2023/09/22 14:23:45;;;;;;;3.80;2.47;;;;;;;;;;5036059;28;25087;-63
2023/09/22 14:26:12;;;;;;;4.13;2.15;;;;;;;;;;5030500;28;25064;-63
2023/09/22 14:28:38;;;;;;;5.40;2.45;;;;;;;;;;5022208;28;25056;-63
2023/09/22 14:31:04;;;;;;;5.93;2.35;;;;;;;;;;5025897;28;25080;-63
2023/09/22 14:33:30;;;;;;;4.15;2.28;;;;;;;;;;5025360;28;25133;-62